• Join FlightAware (Why Join?)
  • Login
  • US Flag 
06:41PM EST


 

Airport Tracker/Info


-or-


 

Live Flight TrackerFlight Track Log ✈ DAL1620 ✈ 12-Apr-2014 ✈ KOMA - KMSP

Flight Track Log - Related Links

Times and Time Zones

All times are in EDT time to prevent confusion due to time zone crossing. See the DAL1620 flight status page for this flight to view local times or setup timezone preferences in your user account.

Time Position Orientation Groundspeed Altitude Reporting Facility
EDT Latitude Longitude Course Direction KTS MPH feet Rate Location/Type
08:00AM 41.2928 -95.8892 66° East 164 189 1,700  Level Minneapolis Center
08:01AM 41.2619 -95.8347 127° Southeast 223 257 3,600 1,792 Climbing Minneapolis Center
08:01AM 41.2597 -95.8125 98° East 231 266 4,000 2,684 Climbing Minneapolis Center
08:02AM 41.3139 -95.7306 49° Northeast 300 345 7,000 3,273 Climbing Minneapolis Center
08:03AM 41.5412 -95.5896 45° Northeast  Level FlightAware Approximate
08:03AM 41.3814 -95.6603 38° Northeast 309 356 10,600  Level Minneapolis Center
08:04AM 41.6244 -95.4923 37° Northeast  Level FlightAware Approximate
08:04AM 41.4500 -95.5867 39° Northeast 313 360 13,700  Level Minneapolis Center
08:05AM 41.6985 -95.3877 66° East  Level FlightAware Approximate
08:05AM 41.5222 -95.5081 39° Northeast 329 379 16,600  Level Minneapolis Center
08:06AM 41.5961 -95.4272 39° Northeast 341 392 19,300 2,459 Climbing Minneapolis Center
08:07AM 41.6744 -95.3403 40° Northeast 361 415 21,600 2,164 Climbing Minneapolis Center
08:08AM 41.7569 -95.2500 39° Northeast 378 435 23,700 1,686 Climbing Minneapolis Center
08:09AM 41.8422 -95.1550 40° Northeast 391 450 25,000 942 Climbing Minneapolis Center
08:10AM 41.9378 -95.0514 39° Northeast 432 497 25,600 885 Climbing Minneapolis Center
08:11AM 42.0622 -94.9125 40° Northeast 479 551 26,800 689 Climbing Minneapolis Center
08:12AM 42.1650 -94.7975 40° Northeast 482 555 27,000 98 Climbing Minneapolis Center
08:13AM 42.2683 -94.6831 39° Northeast 482 555 27,000  Level Minneapolis Center
08:14AM 42.3711 -94.5672 40° Northeast 482 555 27,000 298 Level Minneapolis Center
08:15AM 42.4786 -94.4450 40° Northeast 482 555 27,600 992 Climbing Minneapolis Center
08:16AM 42.5806 -94.3294 40° Northeast 482 555 29,000 689 Climbing Minneapolis Center
08:17AM 42.6819 -94.2164 39° Northeast 477 549 29,000  Level Minneapolis Center
08:18AM 42.7844 -94.1050 39° Northeast 477 549 29,000  Level Minneapolis Center
08:19AM 42.8875 -93.9914 39° Northeast 477 549 29,000 49 Level Minneapolis Center
08:20AM 43.0031 -93.9189 25° Northeast 462 532 29,100  Climbing Minneapolis Center
08:21AM 43.1208 -93.9383 353° North 433 498 29,000 -49 Descending Minneapolis Center
08:22AM 43.2383 -93.9717 348° North 433 498 29,000 -443 Level Minneapolis Center
08:23AM 43.3544 -94.0028 349° North 431 496 28,100 -934 Descending Minneapolis Center
08:24AM 43.4678 -94.0372 348° North 427 491 27,100 -1,033 Descending Minneapolis Center
08:25AM 43.5978 -94.0714 349° North 426 490 26,000 -992 Descending Minneapolis Center
08:26AM 43.7108 -94.1050 348° North 419 482 25,100 -942 Descending Minneapolis Center
08:28AM 43.8214 -94.1364 348° North 411 473 24,100 -934 Descending Minneapolis Center
08:29AM 43.9289 -94.1669 348° North 399 459 23,200 -934 Descending Minneapolis Center
08:30AM 44.0353 -94.1981 348° North 394 453 22,200 -1,574 Descending Minneapolis Center
08:31AM 44.1386 -94.2275 348° North 385 443 20,000 -2,390 Descending Minneapolis Center
08:32AM 44.2406 -94.2578 348° North 377 434 17,300 -2,488 Descending Minneapolis Center
08:33AM 44.3444 -94.2489 North 379 436 14,900 -2,410 Descending Minneapolis Center
08:34AM 44.4456 -94.2217 11° North 376 433 12,400 -1,967 Descending Minneapolis Center
08:35AM 44.5453 -94.1939 11° North 369 425 10,900 -738 Descending Minneapolis Center
08:36AM 44.6494 -94.1653 11° North 321 369 10,900 -295 Level Minneapolis Center
08:37AM 44.7103 -94.0811 45° Northeast 334 384 10,300 -1,171 Descending Minneapolis Center
08:38AM 44.7489 -93.9675 64° Northeast 326 375 8,500 -1,610 Descending Minneapolis Center
08:39AM 44.8081 -93.8675 50° Northeast 328 377 7,000 -738 Descending Minneapolis Center
08:40AM 44.8647 -93.7753 49° Northeast 314 361 7,000 -49 Level Minneapolis Center
08:41AM 44.9158 -93.6883 50° Northeast 283 326 6,900 -492 Descending Minneapolis Center
08:42AM 44.9608 -93.6114 50° Northeast 256 295 6,000 -787 Descending Minneapolis Center
08:43AM 44.9972 -93.5319 57° Northeast 240 276 5,300 -738 Descending Minneapolis Center
08:44AM 44.9831 -93.4539 104° East 207 238 4,500 -885 Descending Minneapolis Center
08:45AM 44.9547 -93.3894 122° Southeast 195 224 3,500 -885 Descending Minneapolis Center
08:46AM 44.9339 -93.3406 121° Southeast 151 174 2,700 -780 Descending Minneapolis Center
08:47AM 44.9156 -93.2983 122° Southeast 130 150 1,900 -732 Descending Minneapolis Center
08:48AM 44.8975 -93.2561 121° Southeast 129 148 1,200 -689 Descending Minneapolis Center